TAM4780 SBPA-SBFL
Flight info
| Callsign | TAM4780 |
|---|---|
| Flight time | 0h 45m |
| Altitude | 29000 |
| Route | ANLER UM540 DADMO |
| Aircraft | A320/M-SDE3FGHIRWY/LB1 |
Departure
| Time | 2026-04-08 14:05 |
|---|---|
| Airport | Porto Alegre-Salgado Filho International Airport (SBPA) |
Arrival
| Time | 2026-04-08 14:51 |
|---|---|
| Airport | Hercílio Luz International Airport (SBFL) |
| Time | Latitude | Longitude | Altitude | Speed | Heading |
|---|---|---|---|---|---|
| 2026-04-08 13:40 | -29.99120 | -51.17348 | 21 ft | 0 kts | 1° |
| 2026-04-08 13:52 | -29.99119 | -51.17348 | 20 ft | 0 kts | 1° |
| 2026-04-08 13:52 | -29.99116 | -51.17348 | 20 ft | 0 kts | 1° |
| 2026-04-08 13:53 | -29.99124 | -51.17348 | 20 ft | 2 kts | 1° |
| 2026-04-08 13:53 | -29.99141 | -51.17348 | 24 ft | 2 kts | 1° |
| 2026-04-08 13:53 | -29.99158 | -51.17349 | 23 ft | 2 kts | 343° |
| 2026-04-08 13:53 | -29.99173 | -51.17341 | 22 ft | 2 kts | 330° |
| 2026-04-08 13:54 | -29.99186 | -51.17329 | 24 ft | 2 kts | 275° |
| 2026-04-08 13:54 | -29.99186 | -51.17327 | 24 ft | 0 kts | 273° |
| 2026-04-08 13:57 | -29.99185 | -51.17340 | 21 ft | 6 kts | 274° |
| 2026-04-08 13:57 | -29.99197 | -51.17385 | 22 ft | 6 kts | 222° |
| 2026-04-08 13:57 | -29.99234 | -51.17392 | 20 ft | 5 kts | 185° |
| 2026-04-08 13:58 | -29.99261 | -51.17378 | 20 ft | 3 kts | 119° |
| 2026-04-08 13:58 | -29.99268 | -51.17347 | 20 ft | 5 kts | 99° |
| 2026-04-08 13:58 | -29.99268 | -51.17304 | 20 ft | 6 kts | 90° |
| 2026-04-08 13:58 | -29.99269 | -51.17250 | 20 ft | 7 kts | 92° |
| 2026-04-08 13:59 | -29.99271 | -51.17190 | 20 ft | 8 kts | 92° |
| 2026-04-08 13:59 | -29.99274 | -51.17119 | 20 ft | 9 kts | 92° |
| 2026-04-08 13:59 | -29.99273 | -51.17041 | 21 ft | 10 kts | 90° |
| 2026-04-08 13:59 | -29.99274 | -51.16960 | 21 ft | 10 kts | 91° |
| 2026-04-08 14:00 | -29.99277 | -51.16885 | 21 ft | 10 kts | 92° |
| 2026-04-08 14:00 | -29.99280 | -51.16807 | 21 ft | 10 kts | 92° |
| 2026-04-08 14:00 | -29.99282 | -51.16728 | 21 ft | 10 kts | 92° |
| 2026-04-08 14:00 | -29.99283 | -51.16680 | 21 ft | 9 kts | 91° |
| 2026-04-08 14:01 | -29.99283 | -51.16617 | 21 ft | 7 kts | 89° |
| 2026-04-08 14:01 | -29.99282 | -51.16551 | 22 ft | 9 kts | 89° |
| 2026-04-08 14:01 | -29.99280 | -51.16446 | 22 ft | 9 kts | 89° |
| 2026-04-08 14:01 | -29.99279 | -51.16394 | 22 ft | 10 kts | 89° |
| 2026-04-08 14:02 | -29.99282 | -51.16280 | 22 ft | 12 kts | 109° |
| 2026-04-08 14:02 | -29.99315 | -51.16235 | 22 ft | 9 kts | 159° |
| 2026-04-08 14:02 | -29.99409 | -51.16229 | 24 ft | 4 kts | 181° |
| 2026-04-08 14:03 | -29.99427 | -51.16229 | 25 ft | 1 kts | 181° |
| 2026-04-08 14:03 | -29.99430 | -51.16229 | 25 ft | 2 kts | 181° |
| 2026-04-08 14:03 | -29.99480 | -51.16222 | 29 ft | 6 kts | 191° |
| 2026-04-08 14:03 | -29.99482 | -51.16229 | 29 ft | 0 kts | 248° |
| 2026-04-08 14:04 | -29.99480 | -51.16233 | 26 ft | 0 kts | 271° |
| 2026-04-08 14:05 | -29.99480 | -51.16291 | 25 ft | 34 kts | 270° |
| 2026-04-08 14:05 | -29.99468 | -51.16848 | 19 ft | 101 kts | 271° |
| 2026-04-08 14:05 | -29.99426 | -51.17851 | 70 ft | 143 kts | 281° |
| 2026-04-08 14:05 | -29.99369 | -51.18962 | 760 ft | 137 kts | 276° |
| 2026-04-08 14:06 | -29.99354 | -51.20072 | 1476 ft | 142 kts | 273° |
| 2026-04-08 14:06 | -29.99164 | -51.21259 | 1859 ft | 164 kts | 300° |
| 2026-04-08 14:06 | -29.98123 | -51.22007 | 2229 ft | 206 kts | 342° |
| 2026-04-08 14:06 | -29.96566 | -51.21647 | 2670 ft | 257 kts | 20° |
| 2026-04-08 14:07 | -29.95062 | -51.20316 | 3304 ft | 284 kts | 37° |
| 2026-04-08 14:07 | -29.93677 | -51.18625 | 4146 ft | 295 kts | 42° |
| 2026-04-08 14:07 | -29.92299 | -51.16817 | 4976 ft | 303 kts | 42° |
| 2026-04-08 14:07 | -29.90874 | -51.14996 | 5841 ft | 309 kts | 41° |
| 2026-04-08 14:08 | -29.89372 | -51.13179 | 6682 ft | 314 kts | 39° |
| 2026-04-08 14:08 | -29.87812 | -51.11394 | 7589 ft | 316 kts | 38° |
| 2026-04-08 14:08 | -29.86236 | -51.09653 | 8410 ft | 320 kts | 37° |
| 2026-04-08 14:08 | -29.84606 | -51.07887 | 8746 ft | 321 kts | 37° |
| 2026-04-08 14:09 | -29.82969 | -51.06129 | 8867 ft | 320 kts | 37° |
| 2026-04-08 14:09 | -29.81341 | -51.04386 | 8893 ft | 319 kts | 37° |
| 2026-04-08 14:09 | -29.79708 | -51.02639 | 8894 ft | 320 kts | 37° |
| 2026-04-08 14:09 | -29.78068 | -51.00883 | 8903 ft | 321 kts | 37° |
| 2026-04-08 14:10 | -29.76461 | -50.99159 | 8896 ft | 321 kts | 37° |
| 2026-04-08 14:10 | -29.74828 | -50.97404 | 8899 ft | 320 kts | 36° |
| 2026-04-08 14:10 | -29.73199 | -50.95653 | 8900 ft | 320 kts | 37° |
| 2026-04-08 14:10 | -29.71573 | -50.93904 | 8897 ft | 319 kts | 37° |
| 2026-04-08 14:11 | -29.69944 | -50.92154 | 8898 ft | 320 kts | 37° |
| 2026-04-08 14:11 | -29.68334 | -50.90427 | 8899 ft | 320 kts | 37° |
| 2026-04-08 14:11 | -29.66703 | -50.88676 | 8903 ft | 320 kts | 37° |
| 2026-04-08 14:11 | -29.65053 | -50.86909 | 9284 ft | 327 kts | 37° |
| 2026-04-08 14:12 | -29.63389 | -50.85127 | 10187 ft | 330 kts | 37° |
| 2026-04-08 14:12 | -29.61667 | -50.83292 | 10495 ft | 353 kts | 37° |
| 2026-04-08 14:12 | -29.59834 | -50.81338 | 11079 ft | 363 kts | 37° |
| 2026-04-08 14:12 | -29.57978 | -50.79350 | 11843 ft | 367 kts | 37° |
| 2026-04-08 14:13 | -29.56100 | -50.77332 | 12646 ft | 370 kts | 37° |
| 2026-04-08 14:13 | -29.54212 | -50.75300 | 13413 ft | 373 kts | 37° |
| 2026-04-08 14:13 | -29.52297 | -50.73240 | 14090 ft | 378 kts | 37° |
| 2026-04-08 14:13 | -29.50367 | -50.71169 | 14722 ft | 382 kts | 37° |
| 2026-04-08 14:14 | -29.48432 | -50.69106 | 15329 ft | 386 kts | 36° |
| 2026-04-08 14:14 | -29.44443 | -50.64870 | 16511 ft | 395 kts | 36° |
| 2026-04-08 14:14 | -29.42413 | -50.62714 | 17087 ft | 399 kts | 36° |
| 2026-04-08 14:15 | -29.40363 | -50.60535 | 17633 ft | 404 kts | 36° |
| 2026-04-08 14:15 | -29.38282 | -50.58319 | 18201 ft | 408 kts | 36° |
| 2026-04-08 14:15 | -29.36218 | -50.56120 | 18692 ft | 411 kts | 36° |
| 2026-04-08 14:15 | -29.34112 | -50.53874 | 19217 ft | 414 kts | 36° |
| 2026-04-08 14:16 | -29.31996 | -50.51618 | 19757 ft | 417 kts | 35° |
| 2026-04-08 14:16 | -29.29867 | -50.49350 | 20277 ft | 419 kts | 35° |
| 2026-04-08 14:16 | -29.27712 | -50.47061 | 20803 ft | 422 kts | 35° |
| 2026-04-08 14:16 | -29.25551 | -50.44769 | 21276 ft | 425 kts | 35° |
| 2026-04-08 14:17 | -29.23379 | -50.42465 | 21798 ft | 427 kts | 34° |
| 2026-04-08 14:17 | -29.21192 | -50.40146 | 22276 ft | 429 kts | 34° |
| 2026-04-08 14:17 | -29.19022 | -50.37844 | 22783 ft | 431 kts | 34° |
| 2026-04-08 14:17 | -29.16816 | -50.35510 | 23285 ft | 433 kts | 34° |
| 2026-04-08 14:18 | -29.14588 | -50.33160 | 23712 ft | 436 kts | 34° |
| 2026-04-08 14:18 | -29.12350 | -50.30798 | 24137 ft | 438 kts | 34° |
| 2026-04-08 14:18 | -29.10105 | -50.28425 | 24554 ft | 440 kts | 34° |
| 2026-04-08 14:18 | -29.07844 | -50.26038 | 24981 ft | 441 kts | 34° |
| 2026-04-08 14:19 | -29.05612 | -50.23683 | 25400 ft | 442 kts | 35° |
| 2026-04-08 14:19 | -29.03346 | -50.21297 | 25818 ft | 443 kts | 34° |
| 2026-04-08 14:19 | -29.01069 | -50.18899 | 26198 ft | 445 kts | 35° |
| 2026-04-08 14:19 | -28.98794 | -50.16505 | 26656 ft | 445 kts | 35° |
| 2026-04-08 14:20 | -28.96499 | -50.14090 | 27066 ft | 446 kts | 35° |
| 2026-04-08 14:20 | -28.94234 | -50.11704 | 27474 ft | 448 kts | 35° |
| 2026-04-08 14:20 | -28.91940 | -50.09289 | 27877 ft | 449 kts | 35° |
| 2026-04-08 14:20 | -28.89632 | -50.06860 | 28253 ft | 451 kts | 36° |
| 2026-04-08 14:21 | -28.87313 | -50.04424 | 28617 ft | 453 kts | 36° |
| 2026-04-08 14:21 | -28.84989 | -50.01990 | 28860 ft | 454 kts | 36° |
| 2026-04-08 14:21 | -28.82725 | -49.99611 | 28897 ft | 439 kts | 36° |
| 2026-04-08 14:21 | -28.80520 | -49.97282 | 28895 ft | 427 kts | 36° |
| 2026-04-08 14:22 | -28.78353 | -49.95001 | 28882 ft | 421 kts | 35° |
| 2026-04-08 14:22 | -28.74036 | -49.90491 | 28892 ft | 419 kts | 34° |
| 2026-04-08 14:23 | -28.69711 | -49.86006 | 28888 ft | 418 kts | 32° |
| 2026-04-08 14:23 | -28.65132 | -49.82083 | 28887 ft | 413 kts | 28° |
| 2026-04-08 14:24 | -28.60492 | -49.78171 | 28892 ft | 415 kts | 28° |
| 2026-04-08 14:24 | -28.55908 | -49.74292 | 28572 ft | 405 kts | 29° |
| 2026-04-08 14:24 | -28.53657 | -49.72387 | 28314 ft | 400 kts | 29° |
| 2026-04-08 14:25 | -28.51419 | -49.70507 | 28054 ft | 398 kts | 28° |
| 2026-04-08 14:25 | -28.49196 | -49.68628 | 27799 ft | 398 kts | 31° |
| 2026-04-08 14:25 | -28.47185 | -49.66413 | 27536 ft | 407 kts | 44° |
| 2026-04-08 14:25 | -28.45568 | -49.63750 | 27307 ft | 413 kts | 52° |
| 2026-04-08 14:26 | -28.44090 | -49.60997 | 27040 ft | 412 kts | 52° |
| 2026-04-08 14:26 | -28.42597 | -49.58223 | 26748 ft | 408 kts | 52° |
| 2026-04-08 14:26 | -28.41120 | -49.55479 | 26281 ft | 407 kts | 53° |
| 2026-04-08 14:26 | -28.39628 | -49.52717 | 25776 ft | 410 kts | 52° |
| 2026-04-08 14:27 | -28.38126 | -49.49942 | 25264 ft | 410 kts | 52° |
| 2026-04-08 14:27 | -28.36649 | -49.47212 | 24744 ft | 410 kts | 52° |
| 2026-04-08 14:27 | -28.35152 | -49.44447 | 24215 ft | 410 kts | 53° |
| 2026-04-08 14:27 | -28.33653 | -49.41679 | 23676 ft | 411 kts | 53° |
| 2026-04-08 14:28 | -28.32152 | -49.38916 | 23092 ft | 411 kts | 53° |
| 2026-04-08 14:28 | -28.30652 | -49.36154 | 22559 ft | 409 kts | 53° |
| 2026-04-08 14:28 | -28.29161 | -49.33404 | 22031 ft | 408 kts | 53° |
| 2026-04-08 14:28 | -28.27676 | -49.30662 | 21524 ft | 407 kts | 53° |
| 2026-04-08 14:29 | -28.26210 | -49.27957 | 21032 ft | 405 kts | 53° |
| 2026-04-08 14:29 | -28.24725 | -49.25226 | 20544 ft | 404 kts | 53° |
| 2026-04-08 14:29 | -28.23252 | -49.22522 | 20051 ft | 402 kts | 53° |
| 2026-04-08 14:29 | -28.21792 | -49.19839 | 19728 ft | 396 kts | 53° |
| 2026-04-08 14:30 | -28.20349 | -49.17179 | 19286 ft | 395 kts | 53° |
| 2026-04-08 14:30 | -28.18909 | -49.14527 | 18847 ft | 393 kts | 53° |
| 2026-04-08 14:30 | -28.17489 | -49.11917 | 18445 ft | 391 kts | 53° |
| 2026-04-08 14:30 | -28.16059 | -49.09292 | 18034 ft | 389 kts | 53° |
| 2026-04-08 14:31 | -28.14637 | -49.06690 | 17485 ft | 384 kts | 52° |
| 2026-04-08 14:31 | -28.13223 | -49.04139 | 16701 ft | 376 kts | 47° |
| 2026-04-08 14:31 | -28.11641 | -49.01882 | 16176 ft | 365 kts | 48° |
| 2026-04-08 14:31 | -28.10286 | -48.99579 | 15849 ft | 354 kts | 53° |
| 2026-04-08 14:32 | -28.09069 | -48.97183 | 15451 ft | 345 kts | 55° |
| 2026-04-08 14:32 | -28.07928 | -48.94828 | 15051 ft | 336 kts | 56° |
| 2026-04-08 14:32 | -28.06803 | -48.92543 | 14677 ft | 329 kts | 54° |
| 2026-04-08 14:32 | -28.05669 | -48.90330 | 14299 ft | 321 kts | 53° |
| 2026-04-08 14:33 | -28.04530 | -48.88195 | 13936 ft | 319 kts | 52° |
| 2026-04-08 14:33 | -28.03353 | -48.86047 | 13551 ft | 321 kts | 52° |
| 2026-04-08 14:33 | -28.02156 | -48.83889 | 13147 ft | 323 kts | 52° |
| 2026-04-08 14:33 | -28.00954 | -48.81725 | 12765 ft | 325 kts | 52° |
| 2026-04-08 14:34 | -27.99784 | -48.79612 | 12353 ft | 327 kts | 52° |
| 2026-04-08 14:34 | -27.98595 | -48.77453 | 11989 ft | 325 kts | 52° |
| 2026-04-08 14:34 | -27.97387 | -48.75249 | 11593 ft | 326 kts | 52° |
| 2026-04-08 14:34 | -27.96223 | -48.73007 | 11296 ft | 340 kts | 50° |
| 2026-04-08 14:35 | -27.94921 | -48.70515 | 10663 ft | 395 kts | 56° |
| 2026-04-08 14:35 | -27.93561 | -48.67598 | 9737 ft | 452 kts | 59° |
| 2026-04-08 14:35 | -27.92150 | -48.64311 | 9682 ft | 471 kts | 60° |
| 2026-04-08 14:35 | -27.90761 | -48.60936 | 10144 ft | 474 kts | 62° |
| 2026-04-08 14:36 | -27.89416 | -48.57520 | 10632 ft | 475 kts | 63° |
| 2026-04-08 14:36 | -27.88180 | -48.54092 | 11110 ft | 453 kts | 65° |
| 2026-04-08 14:36 | -27.87171 | -48.50898 | 11459 ft | 420 kts | 68° |
| 2026-04-08 14:36 | -27.86090 | -48.47960 | 11521 ft | 392 kts | 56° |
| 2026-04-08 14:37 | -27.84725 | -48.45401 | 11157 ft | 372 kts | 53° |
| 2026-04-08 14:37 | -27.83360 | -48.42928 | 10788 ft | 366 kts | 51° |
| 2026-04-08 14:37 | -27.81684 | -48.40816 | 9950 ft | 361 kts | 29° |
| 2026-04-08 14:37 | -27.79444 | -48.39623 | 9005 ft | 356 kts | 12° |
| 2026-04-08 14:38 | -27.77062 | -48.38440 | 8121 ft | 413 kts | 27° |
| 2026-04-08 14:38 | -27.74935 | -48.36171 | 7652 ft | 421 kts | 51° |
| 2026-04-08 14:38 | -27.73811 | -48.33199 | 7541 ft | 408 kts | 77° |
| 2026-04-08 14:38 | -27.73842 | -48.30100 | 7566 ft | 387 kts | 104° |
| 2026-04-08 14:39 | -27.74910 | -48.27432 | 7565 ft | 362 kts | 127° |
| 2026-04-08 14:39 | -27.76377 | -48.25256 | 7561 ft | 342 kts | 133° |
| 2026-04-08 14:39 | -27.77907 | -48.23299 | 7564 ft | 323 kts | 139° |
| 2026-04-08 14:39 | -27.79534 | -48.21670 | 7571 ft | 301 kts | 150° |
| 2026-04-08 14:40 | -27.81279 | -48.20538 | 7556 ft | 278 kts | 165° |
| 2026-04-08 14:40 | -27.83046 | -48.19926 | 7557 ft | 255 kts | 178° |
| 2026-04-08 14:40 | -27.84777 | -48.19739 | 7559 ft | 245 kts | 189° |
| 2026-04-08 14:40 | -27.86455 | -48.19892 | 7555 ft | 238 kts | 199° |
| 2026-04-08 14:41 | -27.88025 | -48.20326 | 7558 ft | 232 kts | 208° |
| 2026-04-08 14:41 | -27.89476 | -48.21002 | 7554 ft | 216 kts | 217° |
| 2026-04-08 14:41 | -27.90717 | -48.21840 | 7554 ft | 200 kts | 225° |
| 2026-04-08 14:41 | -27.91439 | -48.22471 | 7555 ft | 195 kts | 230° |
| 2026-04-08 14:42 | -27.92414 | -48.23559 | 7559 ft | 200 kts | 237° |
| 2026-04-08 14:42 | -27.93257 | -48.24803 | 7558 ft | 199 kts | 244° |
| 2026-04-08 14:42 | -27.93980 | -48.26135 | 7555 ft | 198 kts | 247° |
| 2026-04-08 14:42 | -27.94588 | -48.27517 | 7528 ft | 195 kts | 252° |
| 2026-04-08 14:43 | -27.94952 | -48.28991 | 7386 ft | 195 kts | 270° |
| 2026-04-08 14:43 | -27.94644 | -48.30489 | 7084 ft | 206 kts | 298° |
| 2026-04-08 14:43 | -27.93591 | -48.31599 | 6799 ft | 216 kts | 328° |
| 2026-04-08 14:43 | -27.92125 | -48.32073 | 6512 ft | 221 kts | 337° |
| 2026-04-08 14:44 | -27.90640 | -48.32515 | 6228 ft | 221 kts | 336° |
| 2026-04-08 14:44 | -27.89155 | -48.32981 | 5913 ft | 221 kts | 336° |
| 2026-04-08 14:44 | -27.87671 | -48.33452 | 5614 ft | 221 kts | 336° |
| 2026-04-08 14:44 | -27.86186 | -48.33924 | 5314 ft | 222 kts | 338° |
| 2026-04-08 14:45 | -27.84698 | -48.34419 | 5007 ft | 219 kts | 330° |
| 2026-04-08 14:45 | -27.83269 | -48.35017 | 4700 ft | 223 kts | 334° |
| 2026-04-08 14:45 | -27.81769 | -48.35494 | 4399 ft | 224 kts | 336° |
| 2026-04-08 14:45 | -27.80263 | -48.35934 | 4105 ft | 223 kts | 337° |
| 2026-04-08 14:46 | -27.78758 | -48.36371 | 3798 ft | 223 kts | 337° |
| 2026-04-08 14:46 | -27.77264 | -48.36844 | 3493 ft | 220 kts | 330° |
| 2026-04-08 14:46 | -27.76027 | -48.37762 | 3201 ft | 208 kts | 307° |
| 2026-04-08 14:46 | -27.75240 | -48.39031 | 2923 ft | 194 kts | 298° |
| 2026-04-08 14:47 | -27.74553 | -48.40296 | 2665 ft | 184 kts | 299° |
| 2026-04-08 14:47 | -27.73893 | -48.41513 | 2420 ft | 180 kts | 298° |
| 2026-04-08 14:47 | -27.73244 | -48.42713 | 2170 ft | 178 kts | 298° |
| 2026-04-08 14:47 | -27.72615 | -48.43878 | 1940 ft | 170 kts | 299° |
| 2026-04-08 14:48 | -27.72013 | -48.44994 | 1708 ft | 163 kts | 300° |
| 2026-04-08 14:48 | -27.71440 | -48.46057 | 1508 ft | 153 kts | 298° |
| 2026-04-08 14:48 | -27.70911 | -48.47042 | 1305 ft | 142 kts | 297° |
| 2026-04-08 14:48 | -27.70412 | -48.47969 | 1110 ft | 135 kts | 299° |
| 2026-04-08 14:49 | -27.69925 | -48.48876 | 924 ft | 137 kts | 302° |
| 2026-04-08 14:49 | -27.69434 | -48.49791 | 750 ft | 136 kts | 303° |
| 2026-04-08 14:49 | -27.68939 | -48.50682 | 607 ft | 126 kts | 304° |
| 2026-04-08 14:49 | -27.68499 | -48.51548 | 337 ft | 128 kts | 301° |
| 2026-04-08 14:50 | -27.68036 | -48.52424 | 226 ft | 130 kts | 304° |
| 2026-04-08 14:50 | -27.67565 | -48.53289 | 47 ft | 127 kts | 305° |
| 2026-04-08 14:50 | -27.67139 | -48.54062 | 27 ft | 102 kts | 304° |
| 2026-04-08 14:50 | -27.66854 | -48.54593 | 29 ft | 54 kts | 301° |
| 2026-04-08 14:51 | -27.66699 | -48.54882 | 27 ft | 34 kts | 300° |
| 2026-04-08 14:51 | -27.66606 | -48.55063 | 30 ft | 17 kts | 300° |
| 2026-04-08 14:51 | -27.66616 | -48.55152 | 29 ft | 11 kts | 200° |
| 2026-04-08 14:51 | -27.66686 | -48.55132 | 28 ft | 11 kts | 161° |
| 2026-04-08 14:52 | -27.66756 | -48.55107 | 27 ft | 10 kts | 158° |
| 2026-04-08 14:52 | -27.66799 | -48.55055 | 27 ft | 9 kts | 119° |
| 2026-04-08 14:52 | -27.66827 | -48.54999 | 27 ft | 8 kts | 120° |
| 2026-04-08 14:52 | -27.66853 | -48.54951 | 27 ft | 7 kts | 120° |
| 2026-04-08 14:53 | -27.66877 | -48.54906 | 27 ft | 8 kts | 122° |
| 2026-04-08 14:53 | -27.66915 | -48.54841 | 27 ft | 13 kts | 124° |
| 2026-04-08 14:53 | -27.66968 | -48.54741 | 27 ft | 15 kts | 120° |
| 2026-04-08 14:53 | -27.67020 | -48.54644 | 28 ft | 14 kts | 122° |
| 2026-04-08 14:54 | -27.67071 | -48.54588 | 29 ft | 8 kts | 180° |
| 2026-04-08 14:54 | -27.67118 | -48.54618 | 29 ft | 8 kts | 212° |
| 2026-04-08 14:54 | -27.67167 | -48.54623 | 29 ft | 7 kts | 162° |
| 2026-04-08 14:54 | -27.67204 | -48.54588 | 29 ft | 5 kts | 153° |
| 2026-04-08 14:55 | -27.67229 | -48.54600 | 29 ft | 4 kts | 216° |
| 2026-04-08 14:55 | -27.67246 | -48.54612 | 29 ft | 0 kts | 212° |